createdAt,value
2023-03-26T00:00:47.443Z,10.2
2023-03-26T00:03:15.693Z,8.6
2023-03-26T00:05:43.957Z,8.8
2023-03-26T00:08:12.207Z,8.6
2023-03-26T00:09:26.967Z,8.3
2023-03-26T00:10:40.506Z,7.3
2023-03-26T00:13:08.759Z,6.9
2023-03-26T00:18:05.275Z,5.8
2023-03-26T00:20:33.534Z,6.1
2023-03-26T00:23:01.788Z,6.2
2023-03-26T00:25:30.050Z,5.7
2023-03-26T00:27:58.303Z,5.5
2023-03-26T00:30:26.567Z,5.5
2023-03-26T00:32:54.821Z,6
2023-03-26T00:34:09.555Z,5.2
2023-03-26T00:35:23.097Z,5.5
2023-03-26T00:37:51.351Z,5.4
2023-03-26T00:40:19.610Z,5.6
2023-03-26T00:42:47.872Z,5
2023-03-26T00:45:16.131Z,5.4
2023-03-26T00:50:12.639Z,6
2023-03-26T00:52:40.893Z,5.9
2023-03-26T00:55:09.157Z,6.2
2023-03-26T00:57:37.415Z,6.2
2023-03-26T00:58:52.141Z,6.6
2023-03-26T01:00:05.692Z,6.9
2023-03-26T01:02:33.942Z,6.8
2023-03-26T01:05:02.205Z,7.2
2023-03-26T01:07:30.458Z,6.9
2023-03-26T01:09:58.716Z,7.6
2023-03-26T01:12:26.976Z,7
2023-03-26T01:14:55.232Z,8.1
2023-03-26T01:17:23.484Z,6.9
2023-03-26T01:22:20.004Z,7.6
2023-03-26T01:23:34.737Z,7.8
2023-03-26T01:24:48.281Z,7.7
2023-03-26T01:27:16.539Z,7.8
2023-03-26T01:29:44.792Z,7.6
2023-03-26T01:32:13.050Z,7.1
2023-03-26T01:34:41.303Z,6.8
2023-03-26T01:37:09.565Z,7
2023-03-26T01:39:37.824Z,5.6
2023-03-26T01:42:06.079Z,5.5
2023-03-26T01:44:34.337Z,4.6
2023-03-26T01:47:02.593Z,3.3
2023-03-26T01:48:17.327Z,3.5
2023-03-26T01:51:59.358Z,3.5
2023-03-26T01:54:27.610Z,3.4
2023-03-26T01:56:55.872Z,3.1
2023-03-26T01:59:24.126Z,3.5
2023-03-26T02:01:52.388Z,4
2023-03-26T02:04:20.640Z,4.5
2023-03-26T02:06:48.899Z,4.1
2023-03-26T02:09:17.155Z,3.8
2023-03-26T02:11:45.414Z,2.7
2023-03-26T02:13:00.146Z,2
2023-03-26T02:14:13.688Z,1.9
2023-03-26T02:16:41.948Z,1.9
2023-03-26T02:19:10.210Z,2.2
2023-03-26T02:24:06.726Z,1.7
2023-03-26T02:26:34.975Z,2.1
2023-03-26T02:29:03.240Z,2.3
2023-03-26T02:31:31.492Z,2.2
2023-03-26T02:33:59.754Z,2.4
2023-03-26T02:36:28.012Z,1.7
2023-03-26T02:37:42.742Z,2.1
2023-03-26T02:38:56.281Z,1.8
2023-03-26T02:41:24.539Z,1.9
2023-03-26T02:43:52.799Z,1.7
2023-03-26T02:46:21.060Z,1.5
2023-03-26T02:48:49.316Z,2
2023-03-26T02:51:17.567Z,1.7
2023-03-26T02:56:14.084Z,1.7
2023-03-26T02:58:42.341Z,1.6
2023-03-26T03:01:10.595Z,2.1
2023-03-26T03:02:25.335Z,2.6
2023-03-26T03:03:38.877Z,2.1
2023-03-26T03:06:07.131Z,2.5
2023-03-26T03:08:35.394Z,2.7
2023-03-26T03:11:03.649Z,3
2023-03-26T03:13:31.906Z,2.6
2023-03-26T03:16:00.175Z,2.3
2023-03-26T03:18:28.421Z,2.1
2023-03-26T03:20:56.680Z,2
2023-03-26T03:23:24.931Z,2.3
2023-03-26T03:27:07.924Z,2.3
2023-03-26T03:28:21.463Z,1.8
2023-03-26T03:30:49.725Z,2
2023-03-26T03:33:17.984Z,2
2023-03-26T03:35:46.238Z,2.2
2023-03-26T03:38:14.496Z,2.6
2023-03-26T03:40:42.756Z,2.7
2023-03-26T03:43:11.012Z,2.2
2023-03-26T03:45:39.262Z,2.7
2023-03-26T03:48:07.526Z,2.2
2023-03-26T03:50:35.784Z,2.3
2023-03-26T03:51:50.515Z,2.6
2023-03-26T03:53:04.061Z,2.6
2023-03-26T03:58:00.571Z,2.2
2023-03-26T04:00:28.827Z,2.9
2023-03-26T04:02:57.087Z,2.8
2023-03-26T04:05:25.341Z,3.1
2023-03-26T04:07:53.596Z,2.7
2023-03-26T04:10:21.859Z,3.3
2023-03-26T04:12:50.118Z,3.2
2023-03-26T04:15:18.370Z,3.3
2023-03-26T04:16:33.103Z,3.4
2023-03-26T04:17:46.644Z,3.5
2023-03-26T04:20:14.900Z,3.8
2023-03-26T04:22:43.159Z,3.5
2023-03-26T04:25:11.419Z,3
2023-03-26T04:30:07.932Z,3.7
2023-03-26T04:32:36.186Z,3.5
2023-03-26T04:35:04.450Z,2.5
2023-03-26T04:37:32.705Z,2.2
2023-03-26T04:40:00.961Z,1.6
2023-03-26T04:41:15.692Z,2.4
2023-03-26T04:42:29.236Z,2.4
2023-03-26T04:44:57.496Z,1.8
2023-03-26T04:47:25.749Z,2.2
2023-03-26T04:49:54.009Z,2.7
2023-03-26T04:52:22.263Z,1.9
2023-03-26T04:54:50.523Z,2.4
2023-03-26T04:57:18.773Z,2.2
2023-03-26T05:02:15.294Z,2.4
2023-03-26T05:04:43.543Z,2.6
2023-03-26T05:05:58.276Z,2.6
2023-03-26T05:07:11.827Z,2.3
2023-03-26T05:09:40.085Z,2.7
2023-03-26T05:12:08.336Z,2.7
2023-03-26T05:14:36.596Z,2.6
2023-03-26T05:17:04.846Z,2.2
2023-03-26T05:19:33.112Z,2.2
2023-03-26T05:22:01.362Z,2.3
2023-03-26T05:24:29.625Z,2.4
2023-03-26T05:26:57.874Z,2.7
2023-03-26T05:29:26.132Z,3.3
2023-03-26T05:31:54.395Z,2.7
2023-03-26T05:34:22.653Z,2.5
2023-03-26T05:36:50.905Z,3
2023-03-26T05:39:19.167Z,2.6
2023-03-26T05:41:47.417Z,3.5
2023-03-26T05:44:15.675Z,3.4
2023-03-26T05:46:43.936Z,3.1
2023-03-26T05:49:12.187Z,3.5
2023-03-26T05:51:40.450Z,3.3
2023-03-26T05:54:08.708Z,3.2
2023-03-26T05:55:23.453Z,3.3
2023-03-26T05:56:36.996Z,3.7
2023-03-26T05:59:05.254Z,3.6
2023-03-26T06:04:01.765Z,3.8
2023-03-26T06:06:30.022Z,3.7
2023-03-26T06:08:58.285Z,3.5
2023-03-26T06:11:26.541Z,3.8
2023-03-26T06:13:54.803Z,3.4
2023-03-26T06:16:23.058Z,3.1
2023-03-26T06:18:51.314Z,3.3
2023-03-26T06:20:06.050Z,3
2023-03-26T06:21:19.588Z,3.3
2023-03-26T06:23:47.849Z,3.6
2023-03-26T06:26:16.106Z,3.8
2023-03-26T06:28:44.362Z,3.4
2023-03-26T06:31:12.624Z,3.5
2023-03-26T06:36:09.132Z,4
2023-03-26T06:38:37.394Z,3.7
2023-03-26T06:41:05.642Z,3.1
2023-03-26T06:43:33.909Z,3.3
2023-03-26T06:44:48.633Z,3.6
2023-03-26T06:46:02.177Z,3.8
2023-03-26T06:48:30.443Z,3.8
2023-03-26T06:50:58.693Z,3.5
2023-03-26T06:53:26.951Z,3.4
2023-03-26T06:55:55.207Z,3.8
2023-03-26T06:58:23.468Z,3.6
2023-03-26T07:00:51.726Z,2.9
2023-03-26T07:03:19.986Z,3.7
2023-03-26T07:08:16.496Z,3.8
2023-03-26T07:09:31.226Z,4.2
2023-03-26T07:10:44.766Z,6.3
2023-03-26T07:13:13.026Z,4.3
2023-03-26T07:15:41.283Z,5.3
2023-03-26T07:18:09.543Z,4.5
2023-03-26T07:20:37.805Z,4.2
2023-03-26T07:23:06.057Z,4.7
2023-03-26T07:25:34.319Z,4.6
2023-03-26T07:28:02.569Z,4.4
2023-03-26T07:30:30.833Z,4.3
2023-03-26T07:32:59.090Z,4.4
2023-03-26T07:34:13.816Z,4.8
2023-03-26T07:37:55.849Z,5
2023-03-26T07:40:24.106Z,4.5
2023-03-26T07:42:52.370Z,5.1
2023-03-26T07:45:20.622Z,4.6
2023-03-26T07:47:48.878Z,5.1
2023-03-26T07:50:17.137Z,5.3
2023-03-26T07:52:45.396Z,5.1
2023-03-26T07:55:13.653Z,4.1
2023-03-26T07:57:41.912Z,4.1
2023-03-26T07:58:56.644Z,4.6
2023-03-26T08:00:10.189Z,4.9
2023-03-26T08:02:38.445Z,4.4
2023-03-26T08:05:06.700Z,4
2023-03-26T08:10:03.220Z,4.7
2023-03-26T08:12:31.475Z,4.6
2023-03-26T08:14:59.724Z,4.1
2023-03-26T08:17:27.984Z,4.4
2023-03-26T08:19:56.243Z,4.1
2023-03-26T08:22:24.495Z,4.8
2023-03-26T08:23:39.236Z,4.6
2023-03-26T08:24:52.774Z,4.7
2023-03-26T08:27:21.028Z,4.6
2023-03-26T08:29:49.290Z,4.4
2023-03-26T08:32:17.540Z,4.6
2023-03-26T08:34:45.798Z,3.9
2023-03-26T08:37:14.060Z,4.3
2023-03-26T08:42:10.567Z,4.4
2023-03-26T08:44:38.833Z,4.4
2023-03-26T08:47:07.081Z,4.2
2023-03-26T08:48:21.814Z,4.8
2023-03-26T08:49:35.362Z,4.1
2023-03-26T08:52:03.616Z,4.1
2023-03-26T08:54:31.874Z,3.5
2023-03-26T08:57:00.130Z,4.4
2023-03-26T08:59:28.389Z,4.3
2023-03-26T09:01:56.649Z,3.7
2023-03-26T09:04:24.909Z,4
2023-03-26T09:06:53.158Z,4.2
2023-03-26T09:09:21.420Z,4.3
2023-03-26T09:13:04.406Z,4.2
2023-03-26T09:14:17.954Z,3.9
2023-03-26T09:16:46.202Z,4.2
2023-03-26T09:19:14.459Z,4.1
2023-03-26T09:21:42.717Z,3.9
2023-03-26T09:24:10.980Z,3.5
2023-03-26T09:26:39.235Z,4.4
2023-03-26T09:29:07.487Z,4.6
2023-03-26T09:31:35.749Z,3.9
2023-03-26T09:34:04.009Z,4.5
2023-03-26T09:36:32.258Z,4.3
2023-03-26T09:37:46.994Z,3.7
2023-03-26T09:39:00.541Z,3.7
2023-03-26T09:43:57.052Z,4.1
2023-03-26T09:46:25.307Z,3.9
2023-03-26T09:48:53.566Z,4
2023-03-26T09:51:21.820Z,3.9
2023-03-26T09:53:50.080Z,3.8
2023-03-26T09:56:18.330Z,3.7
2023-03-26T09:58:46.589Z,4.3
2023-03-26T10:01:14.852Z,3.7
2023-03-26T10:02:29.581Z,4.1
2023-03-26T10:03:43.123Z,4
2023-03-26T10:06:11.385Z,4.1
2023-03-26T10:08:39.643Z,4.4
2023-03-26T10:11:07.896Z,4.5
2023-03-26T10:16:04.410Z,4.3
2023-03-26T10:18:32.665Z,3.6
2023-03-26T10:21:00.925Z,4.1
2023-03-26T10:23:29.181Z,3.7
2023-03-26T10:25:57.443Z,3.9
2023-03-26T10:27:12.175Z,4
2023-03-26T10:28:25.713Z,3.8
2023-03-26T10:30:53.978Z,3.5
2023-03-26T10:33:22.233Z,3.6
2023-03-26T10:35:50.482Z,4.1
2023-03-26T10:38:18.739Z,3.5
2023-03-26T10:40:46.995Z,4.4
2023-03-26T10:43:15.255Z,3.7
2023-03-26T10:48:11.772Z,3.9
2023-03-26T10:50:40.026Z,3.3
2023-03-26T10:51:54.762Z,3.1
2023-03-26T10:53:08.298Z,3.6
2023-03-26T10:55:36.555Z,3.5
2023-03-26T10:58:04.818Z,3.6
2023-03-26T11:00:33.071Z,3.2
2023-03-26T11:03:01.323Z,4
2023-03-26T11:05:29.579Z,3.5
2023-03-26T11:07:57.843Z,3.8
2023-03-26T11:10:26.097Z,4.1
2023-03-26T11:12:54.351Z,3.7
2023-03-26T11:15:22.607Z,3.6
2023-03-26T11:17:50.877Z,4.3
2023-03-26T11:20:19.131Z,3.8
2023-03-26T11:22:47.384Z,3.5
2023-03-26T11:25:15.644Z,3.4
2023-03-26T11:27:43.894Z,3.8
2023-03-26T11:30:12.152Z,3.6
2023-03-26T11:32:40.410Z,3.6
2023-03-26T11:35:08.667Z,4.1
2023-03-26T11:37:36.920Z,3.7
2023-03-26T11:40:05.183Z,3.5
2023-03-26T11:41:19.929Z,3.4
2023-03-26T11:42:33.477Z,3.8
2023-03-26T11:45:01.735Z,3.6
2023-03-26T11:49:58.245Z,3.5
2023-03-26T11:52:26.501Z,3.2
2023-03-26T11:54:54.759Z,3.3
2023-03-26T11:57:23.013Z,3.2
2023-03-26T11:59:51.271Z,3.8
2023-03-26T12:02:19.526Z,3.4
2023-03-26T12:04:47.783Z,3.6
2023-03-26T12:06:02.518Z,3.7
2023-03-26T12:07:16.060Z,3.7
2023-03-26T12:09:44.325Z,3.1
2023-03-26T12:12:12.583Z,3.3
2023-03-26T12:14:40.840Z,3
2023-03-26T12:17:09.097Z,3.4
2023-03-26T12:22:05.610Z,3.3
2023-03-26T12:24:33.862Z,3.3
2023-03-26T12:27:02.118Z,3.6
2023-03-26T12:29:30.374Z,3.8
2023-03-26T12:30:45.106Z,3.2
2023-03-26T12:31:58.651Z,3.6
2023-03-26T12:34:26.911Z,3.5
2023-03-26T12:36:55.164Z,3.4
2023-03-26T12:39:23.427Z,3.9
2023-03-26T12:41:51.681Z,3.4
2023-03-26T12:44:19.940Z,3.4
2023-03-26T12:46:48.197Z,3.3
2023-03-26T12:49:16.455Z,3.7
2023-03-26T12:54:12.969Z,3.1
2023-03-26T12:55:27.705Z,3.7
2023-03-26T12:56:41.248Z,3.2
2023-03-26T12:59:09.506Z,3
2023-03-26T13:01:37.756Z,3.5
2023-03-26T13:04:06.020Z,3.5
2023-03-26T13:06:34.272Z,3.2
2023-03-26T13:09:02.525Z,3
2023-03-26T13:11:30.789Z,3.5
2023-03-26T13:13:59.048Z,3.4
2023-03-26T13:16:27.299Z,4
2023-03-26T13:18:55.559Z,3.4
2023-03-26T13:20:10.289Z,3.9
2023-03-26T13:23:52.326Z,3.1
2023-03-26T13:26:20.580Z,3.2
2023-03-26T13:28:48.838Z,3.4
2023-03-26T13:31:17.089Z,3.9
2023-03-26T13:33:45.355Z,3.1
2023-03-26T13:36:13.607Z,3.6
2023-03-26T13:38:41.861Z,4
2023-03-26T13:41:10.123Z,3.2
2023-03-26T13:43:38.379Z,4
2023-03-26T13:44:53.112Z,3.2
2023-03-26T13:46:06.649Z,3.8
2023-03-26T13:48:34.912Z,3.7
2023-03-26T13:51:03.172Z,3.4
2023-03-26T13:55:59.686Z,2.6
2023-03-26T13:58:27.936Z,2.3
2023-03-26T14:00:56.199Z,3.1
2023-03-26T14:03:24.451Z,3.7
2023-03-26T14:05:52.708Z,3
2023-03-26T14:08:20.965Z,3.2
2023-03-26T14:09:35.701Z,3.3
2023-03-26T14:10:49.242Z,3.2
2023-03-26T14:13:17.496Z,3.6
2023-03-26T14:15:45.759Z,2.7
2023-03-26T14:18:14.011Z,3.7
2023-03-26T14:20:42.268Z,3
2023-03-26T14:23:10.532Z,3.3
2023-03-26T14:28:07.043Z,3.6
2023-03-26T14:30:35.299Z,3.3
2023-03-26T14:33:03.552Z,3.1
2023-03-26T14:34:18.285Z,3.3
2023-03-26T14:35:31.836Z,3.5
2023-03-26T14:38:00.085Z,2.6
2023-03-26T14:40:28.347Z,3.5
2023-03-26T14:42:56.607Z,3.1
2023-03-26T14:45:24.859Z,3.4
2023-03-26T14:47:53.113Z,3.5
2023-03-26T14:50:21.376Z,3.2
2023-03-26T14:52:49.629Z,3.4
2023-03-26T14:55:17.887Z,2.7
2023-03-26T14:59:00.879Z,2.6
2023-03-26T15:00:14.421Z,3.5
2023-03-26T15:02:42.681Z,3.3
2023-03-26T15:05:10.933Z,3
2023-03-26T15:07:39.189Z,3.5
2023-03-26T15:10:07.447Z,2.9
2023-03-26T15:12:35.709Z,3.7
2023-03-26T15:15:03.969Z,4.1
2023-03-26T15:17:32.220Z,3.3
2023-03-26T15:20:00.482Z,3.7
2023-03-26T15:22:28.732Z,3.3
2023-03-26T15:23:43.470Z,3.2
2023-03-26T15:24:57.017Z,3.7
2023-03-26T15:29:53.523Z,3.3
2023-03-26T15:32:21.785Z,3.3
2023-03-26T15:34:50.042Z,3.4
2023-03-26T15:37:18.300Z,3.1
2023-03-26T15:39:46.550Z,2.8
2023-03-26T15:42:14.815Z,2.6
2023-03-26T15:44:43.068Z,2.6
2023-03-26T15:47:11.326Z,3.8
2023-03-26T15:48:26.060Z,2.5
2023-03-26T15:49:39.603Z,2.7
2023-03-26T15:52:07.856Z,3.2
2023-03-26T15:54:36.123Z,2.5
2023-03-26T15:57:04.375Z,2.8
2023-03-26T16:02:00.888Z,2.8
2023-03-26T16:04:29.144Z,2.7
2023-03-26T16:06:57.400Z,2.8
2023-03-26T16:09:25.660Z,3
2023-03-26T16:11:53.920Z,2.8
2023-03-26T16:13:08.646Z,2.4
2023-03-26T16:14:22.196Z,2.5
2023-03-26T16:16:50.446Z,2.6
2023-03-26T16:19:18.710Z,2.8
2023-03-26T16:21:46.962Z,3
2023-03-26T16:24:15.216Z,2.3
2023-03-26T16:26:43.476Z,2.4
2023-03-26T16:29:11.731Z,2.4
2023-03-26T16:34:08.247Z,2.2
2023-03-26T16:36:36.501Z,2.5
2023-03-26T16:37:51.239Z,2.2
2023-03-26T16:39:04.775Z,2.3
2023-03-26T16:41:33.033Z,2.3
2023-03-26T16:44:01.291Z,2.5
2023-03-26T16:46:29.552Z,2.3
2023-03-26T16:48:57.801Z,2.7
2023-03-26T16:51:26.057Z,3.4
2023-03-26T16:53:54.313Z,2.8
2023-03-26T16:56:22.571Z,2.4
2023-03-26T16:58:50.828Z,2.2
2023-03-26T17:01:19.085Z,2
2023-03-26T17:03:47.345Z,2.3
2023-03-26T17:06:15.606Z,2.2
2023-03-26T17:08:43.856Z,2.2
2023-03-26T17:11:12.115Z,2.1
2023-03-26T17:13:40.370Z,1.9
2023-03-26T17:16:08.632Z,1.8
2023-03-26T17:18:36.892Z,1.6
2023-03-26T17:21:05.149Z,1.7
2023-03-26T17:23:33.401Z,2.1
2023-03-26T17:26:01.661Z,1.7
2023-03-26T17:27:16.409Z,1.8
2023-03-26T17:28:29.949Z,1.6
2023-03-26T17:30:58.210Z,1.7
2023-03-26T17:35:54.724Z,1.5
2023-03-26T17:38:22.977Z,2
2023-03-26T17:40:51.238Z,1.3
2023-03-26T17:43:19.491Z,1.6
2023-03-26T17:45:47.747Z,2.3
2023-03-26T17:48:16.007Z,1.5
2023-03-26T17:50:44.263Z,1.5
2023-03-26T17:51:58.999Z,1.2
2023-03-26T17:53:12.545Z,1.2
2023-03-26T17:55:40.800Z,1.5
2023-03-26T17:58:09.053Z,1.3
2023-03-26T18:00:37.316Z,1.1
2023-03-26T18:03:05.571Z,1.4
2023-03-26T18:08:02.085Z,1.1
2023-03-26T18:10:30.336Z,1
2023-03-26T18:12:58.602Z,1.3
2023-03-26T18:15:26.856Z,1.2
2023-03-26T18:16:41.589Z,1
2023-03-26T18:17:55.133Z,1.2
2023-03-26T18:20:23.391Z,1.1
2023-03-26T18:22:51.645Z,1.3
2023-03-26T18:25:19.903Z,1
2023-03-26T18:27:48.156Z,1.1
2023-03-26T18:30:16.414Z,1.4
2023-03-26T18:32:44.679Z,2.4
2023-03-26T18:35:12.932Z,1.4
2023-03-26T18:40:09.450Z,1.2
2023-03-26T18:41:24.181Z,1.2
2023-03-26T18:42:37.723Z,1.3
2023-03-26T18:45:05.978Z,1.5
2023-03-26T18:47:34.238Z,1.3
2023-03-26T18:50:02.499Z,1.2
2023-03-26T18:52:30.758Z,1.2
2023-03-26T18:54:59.008Z,0.9
2023-03-26T18:57:27.270Z,1.1
2023-03-26T18:59:55.520Z,1
2023-03-26T19:02:23.778Z,1
2023-03-26T19:04:52.036Z,1
2023-03-26T19:06:06.776Z,0.9
2023-03-26T19:09:48.803Z,0.9
2023-03-26T19:12:17.058Z,1
2023-03-26T19:14:45.321Z,1.1
2023-03-26T19:17:13.570Z,0.8
2023-03-26T19:19:41.827Z,0.9
2023-03-26T19:22:10.085Z,1
2023-03-26T19:24:38.347Z,1
2023-03-26T19:27:06.604Z,0.9
2023-03-26T19:29:34.854Z,0.8
2023-03-26T19:30:49.591Z,0.8
2023-03-26T19:32:03.132Z,0.7
2023-03-26T19:34:31.390Z,0.6
2023-03-26T19:36:59.648Z,0.8
2023-03-26T19:41:56.160Z,0.6
2023-03-26T19:44:24.418Z,0.9
2023-03-26T19:46:52.672Z,0.7
2023-03-26T19:49:20.933Z,0.7
2023-03-26T19:51:49.190Z,0.9
2023-03-26T19:54:17.447Z,0.8
2023-03-26T19:55:32.183Z,1
2023-03-26T19:56:45.727Z,0.7
2023-03-26T19:59:13.980Z,0.8
2023-03-26T20:01:42.233Z,0.6
2023-03-26T20:04:10.492Z,0.8
2023-03-26T20:06:38.754Z,0.7
2023-03-26T20:09:07.004Z,1
2023-03-26T20:14:03.523Z,0.9
2023-03-26T20:16:31.782Z,0.9
2023-03-26T20:19:00.031Z,0.8
2023-03-26T20:20:14.768Z,1.1
2023-03-26T20:21:28.316Z,1.2
2023-03-26T20:23:56.573Z,1.8
2023-03-26T20:26:24.829Z,1.9
2023-03-26T20:28:53.080Z,3.3
2023-03-26T20:31:21.339Z,8.8
2023-03-26T20:33:49.603Z,4.4
2023-03-26T20:36:17.858Z,7.4
2023-03-26T20:38:46.115Z,4.1
2023-03-26T20:41:14.368Z,2
2023-03-26T20:44:57.356Z,1.4
2023-03-26T20:46:10.902Z,1.2
2023-03-26T20:48:39.158Z,1.2
2023-03-26T20:51:07.419Z,1.2
2023-03-26T20:53:35.680Z,1.4
2023-03-26T20:56:03.937Z,1.3
2023-03-26T20:58:32.191Z,1.3
2023-03-26T21:01:00.450Z,1.7
2023-03-26T21:03:28.701Z,1.7
2023-03-26T21:05:56.961Z,1.2
2023-03-26T21:08:25.220Z,1.5
2023-03-26T21:09:39.951Z,1.6
2023-03-26T21:10:53.498Z,1.6
2023-03-26T21:15:50.015Z,1.9
2023-03-26T21:18:18.271Z,1.4
2023-03-26T21:20:46.528Z,1.8
2023-03-26T21:23:14.787Z,1.5
2023-03-26T21:25:43.040Z,1.9
2023-03-26T21:28:11.296Z,1.8
2023-03-26T21:30:39.553Z,1.9
2023-03-26T21:33:07.817Z,1.8
2023-03-26T21:34:22.551Z,1.7
2023-03-26T21:35:36.093Z,2
2023-03-26T21:38:04.351Z,1.8
2023-03-26T21:40:32.605Z,2.1
2023-03-26T21:43:00.860Z,1.8
2023-03-26T21:47:57.380Z,2
2023-03-26T21:50:25.641Z,2.1
2023-03-26T21:52:53.890Z,1.9
2023-03-26T21:55:22.150Z,1.7
2023-03-26T21:57:50.408Z,2.2
2023-03-26T21:59:05.139Z,2
2023-03-26T22:00:18.686Z,2.4
2023-03-26T22:02:46.946Z,1.8
2023-03-26T22:05:15.202Z,1.8
2023-03-26T22:07:43.458Z,1.8
2023-03-26T22:10:11.716Z,2
2023-03-26T22:12:39.976Z,2.3
2023-03-26T22:15:08.225Z,2.2
2023-03-26T22:20:04.748Z,2.2
2023-03-26T22:22:32.998Z,1.6
2023-03-26T22:23:47.738Z,2
2023-03-26T22:25:01.276Z,2
2023-03-26T22:27:29.536Z,1.9
2023-03-26T22:29:57.791Z,1.7
2023-03-26T22:32:26.049Z,2.1
2023-03-26T22:34:54.307Z,2
2023-03-26T22:37:22.564Z,2
2023-03-26T22:39:50.825Z,1.8
2023-03-26T22:42:19.076Z,2
2023-03-26T22:44:47.338Z,1.7
2023-03-26T22:47:15.595Z,1.9
2023-03-26T22:49:43.855Z,2.1
2023-03-26T22:52:12.111Z,1.9
2023-03-26T22:54:40.364Z,1.7
2023-03-26T22:57:08.627Z,2.1
2023-03-26T22:59:36.880Z,1.6
2023-03-26T23:02:05.132Z,1.7
2023-03-26T23:04:33.396Z,1.8
2023-03-26T23:07:01.649Z,1.7
2023-03-26T23:09:29.911Z,2.3
2023-03-26T23:11:58.169Z,2
2023-03-26T23:13:12.917Z,2
2023-03-26T23:14:26.463Z,2.1
2023-03-26T23:16:54.715Z,1.9
2023-03-26T23:21:51.236Z,2.1
2023-03-26T23:24:19.490Z,1.7
2023-03-26T23:26:47.745Z,1.9
2023-03-26T23:29:16.005Z,1.7
2023-03-26T23:31:44.263Z,1.7
2023-03-26T23:34:12.515Z,2.4
2023-03-26T23:36:40.771Z,1.8
2023-03-26T23:37:55.511Z,1.6
2023-03-26T23:39:09.051Z,2
2023-03-26T23:41:37.303Z,1.9
2023-03-26T23:44:05.563Z,1.8
2023-03-26T23:46:33.821Z,1.9
2023-03-26T23:49:02.075Z,2.2
2023-03-26T23:53:58.594Z,2.6
2023-03-26T23:56:26.846Z,2.4
2023-03-26T23:58:55.104Z,2.3
